Aérodrome de Castelnaudary-Villeneuve

LFMW · Aude, Occitanie, 法国

罗盘
风向 的 风向 110° Aérodrome de Castelnaudary-Villeneuve 11/29
风: 8 kt, 3 beaufort

8 kt

改变
0 1.000 2.000 3.000 4.000 5.000
垂直能见度
METAR LFBA 262300Z AUTO 11008KT 0450 R29/0550N FG VV/// 06/06 Q1025

METAR Aérodrome de Castelnaudary-Villeneuve - LFMW

Aérodrome de Castelnaudary-Villeneuve是,法国中的小机场。 该机场有一条跑道: 11/29. 该领域的国际民航组织标志是LFMW.

这份报告是针对2022年11月27日 00:00, 当地时间在Agen-La Garenne Airport进行的。

机场观察

风向为110°,速度为8 kt。

可见度为450 m。 跑道29的能见度为550 m 和 没有趋势。

垂直能见度为0 ft 没有观察到天花板。

当前天气为多雾路段。 温度为6 °C,阵风为2 °C。 露点为6 °C,相对湿度为100%。 海平面上的气压为1025 hPa (QNH)。

白天

今天,太阳从07:59升起,在17:20降落。 这适用于Aérodrome de Castelnaudary-Villeneuve,世界夏令时可能有所不同。 当地时间与世界标准时间之间的时差为+1 小时。 当前,没有夏令时有效。

公司介绍

在这个机场,你可以找到飞行俱乐部。 这个机场上的公司有Aéroclub J. Doudies Castelnaudary 和 Aéro-Club des Personnels de l'ENAC de Castelnaudar。

体会

到Vliegles.nl去找飞行课程,跳伞和其他飞行体验。 浏览页面,了解Aérodrome de Castelnaudary-Villeneuve附近所有可用的活动。 你也可以使用搜索功能来寻找你所在地附近的特定飞行课程、跳伞或其他飞行体验。

警示语

垂直能见度为0 ft。
跑道29处的能见度为550 m 和 没有趋势。

跑道

Id 标题 侧风 逆风 侧风 %
11/29 110°-290° 8 kt 0 %

逆风成分最大的方向会被突出显示,并用于横风计算。 这并不一定意味着这个方向在使用。

乌云

0 ft VV 垂直能见度

温度 & 天气

天气 多雾路段
温度 6 °C
露点 6 °C
相对湿度 100%
风寒 2 °C
Kp-index 3 (0-9)

白天

日出
08:06 (7:42)
中午
12:44
日落
17:22

小工具

你想在你的网站上有一个关于Aérodrome de Castelnaudary-Villeneuve的当前航空天气(METAR)的小部件吗?

显示HTML代码

我们和第三方通过cookies跟踪您在我们网站上的互联网行为。如果你继续,我们认为你同意我们的饼干政策